sensor_id;sensor_type;location;lat;lon;timestamp;pressure;altitude;pressure_sealevel;temperature;humidity
80837;BME280;70251;60.008;30.404;2023-11-21T00:00:40;101380.72;;;-0.47;63.31
80837;BME280;70251;60.008;30.404;2023-11-21T00:03:06;101387.47;;;-0.40;63.01
80837;BME280;70251;60.008;30.404;2023-11-21T00:05:32;101377.97;;;-0.43;62.27
80837;BME280;70251;60.008;30.404;2023-11-21T00:07:57;101379.94;;;-0.51;62.27
80837;BME280;70251;60.008;30.404;2023-11-21T00:10:26;101374.91;;;-0.57;62.96
80837;BME280;70251;60.008;30.404;2023-11-21T00:12:52;101382.91;;;-0.61;62.96
80837;BME280;70251;60.008;30.404;2023-11-21T00:15:20;101382.91;;;-0.61;62.60
80837;BME280;70251;60.008;30.404;2023-11-21T00:17:47;101374.25;;;-0.63;62.99
80837;BME280;70251;60.008;30.404;2023-11-21T00:20:19;101379.72;;;-0.71;62.66
80837;BME280;70251;60.008;30.404;2023-11-21T00:22:45;101383.44;;;-0.78;63.02
80837;BME280;70251;60.008;30.404;2023-11-21T00:25:11;101387.13;;;-0.84;63.16
80837;BME280;70251;60.008;30.404;2023-11-21T00:27:38;101385.19;;;-0.79;63.83
80837;BME280;70251;60.008;30.404;2023-11-21T00:30:07;101385.84;;;-0.70;63.37
80837;BME280;70251;60.008;30.404;2023-11-21T00:32:37;101377.66;;;-0.61;62.94
80837;BME280;70251;60.008;30.404;2023-11-21T00:35:03;101387.19;;;-0.59;63.01
80837;BME280;70251;60.008;30.404;2023-11-21T00:37:30;101391.56;;;-0.59;63.22
80837;BME280;70251;60.008;30.404;2023-11-21T00:39:57;101389.69;;;-0.54;62.55
80837;BME280;70251;60.008;30.404;2023-11-21T00:42:23;101388.72;;;-0.52;62.88
80837;BME280;70251;60.008;30.404;2023-11-21T00:44:49;101388.63;;;-0.49;62.48
80837;BME280;70251;60.008;30.404;2023-11-21T00:47:14;101387.94;;;-0.55;62.61
80837;BME280;70251;60.008;30.404;2023-11-21T00:49:40;101395.94;;;-0.58;62.88
80837;BME280;70251;60.008;30.404;2023-11-21T00:52:06;101397.63;;;-0.57;63.03
80837;BME280;70251;60.008;30.404;2023-11-21T00:54:35;101396.66;;;-0.53;62.75
80837;BME280;70251;60.008;30.404;2023-11-21T00:57:01;101406.13;;;-0.49;62.85
80837;BME280;70251;60.008;30.404;2023-11-21T00:59:27;101400.88;;;-0.49;62.77
80837;BME280;70251;60.008;30.404;2023-11-21T01:01:53;101415.69;;;-0.48;63.07
80837;BME280;70251;60.008;30.404;2023-11-21T01:04:19;101408.69;;;-0.48;63.26
80837;BME280;70251;60.008;30.404;2023-11-21T01:06:45;101407.69;;;-0.44;62.69
80837;BME280;70251;60.008;30.404;2023-11-21T01:09:10;101419.88;;;-0.43;62.78
80837;BME280;70251;60.008;30.404;2023-11-21T01:11:36;101417.28;;;-0.44;62.39
80837;BME280;70251;60.008;30.404;2023-11-21T01:14:06;101405.13;;;-0.45;62.75
80837;BME280;70251;60.008;30.404;2023-11-21T01:16:39;101411.25;;;-0.46;62.59
80837;BME280;70251;60.008;30.404;2023-11-21T01:19:05;101415.69;;;-0.48;63.23
80837;BME280;70251;60.008;30.404;2023-11-21T01:21:31;101412.97;;;-0.45;62.91
80837;BME280;70251;60.008;30.404;2023-11-21T01:23:57;101421.59;;;-0.42;62.98
80837;BME280;70251;60.008;30.404;2023-11-21T01:26:22;101409.22;;;-0.37;63.62
80837;BME280;70251;60.008;30.404;2023-11-21T01:28:48;101415.94;;;-0.30;62.81
80837;BME280;70251;60.008;30.404;2023-11-21T01:31:15;101405.59;;;-0.33;62.97
80837;BME280;70251;60.008;30.404;2023-11-21T01:33:41;101417.53;;;-0.24;63.13
80837;BME280;70251;60.008;30.404;2023-11-21T01:36:07;101417.41;;;-0.21;62.92
80837;BME280;70251;60.008;30.404;2023-11-21T01:38:33;101417.47;;;-0.23;62.63
80837;BME280;70251;60.008;30.404;2023-11-21T01:40:58;101413.97;;;-0.22;62.88
80837;BME280;70251;60.008;30.404;2023-11-21T01:43:27;101416.53;;;-0.20;63.01
80837;BME280;70251;60.008;30.404;2023-11-21T01:45:55;101414.66;;;-0.17;62.28
80837;BME280;70251;60.008;30.404;2023-11-21T01:48:24;101415.50;;;-0.16;62.83
80837;BME280;70251;60.008;30.404;2023-11-21T01:50:51;101417.34;;;-0.18;63.04
80837;BME280;70251;60.008;30.404;2023-11-21T01:53:17;101425.13;;;-0.17;62.95
80837;BME280;70251;60.008;30.404;2023-11-21T01:55:45;101411.19;;;-0.17;62.77
80837;BME280;70251;60.008;30.404;2023-11-21T01:58:11;101425.94;;;-0.15;62.86
80837;BME280;70251;60.008;30.404;2023-11-21T02:00:37;101424.31;;;-0.17;62.57
80837;BME280;70251;60.008;30.404;2023-11-21T02:03:04;101431.44;;;-0.22;63.11
80837;BME280;70251;60.008;30.404;2023-11-21T02:05:30;101423.66;;;-0.25;62.69
80837;BME280;70251;60.008;30.404;2023-11-21T02:07:56;101423.66;;;-0.25;63.04
80837;BME280;70251;60.008;30.404;2023-11-21T02:10:22;101414.19;;;-0.29;62.86
80837;BME280;70251;60.008;30.404;2023-11-21T02:12:51;101422.13;;;-0.31;62.96
80837;BME280;70251;60.008;30.404;2023-11-21T02:15:17;101434.28;;;-0.30;63.43
80837;BME280;70251;60.008;30.404;2023-11-21T02:17:48;101432.47;;;-0.26;63.14
80837;BME280;70251;60.008;30.404;2023-11-21T02:20:17;101442.75;;;-0.20;62.86
80837;BME280;70251;60.008;30.404;2023-11-21T02:22:53;101436.50;;;-0.16;62.74
80837;BME280;70251;60.008;30.404;2023-11-21T02:25:30;101434.78;;;-0.17;63.41
80837;BME280;70251;60.008;30.404;2023-11-21T02:28:00;101436.44;;;-0.15;62.66
80837;BME280;70251;60.008;30.404;2023-11-21T02:30:27;101440.03;;;-0.17;63.18
80837;BME280;70251;60.008;30.404;2023-11-21T02:32:54;101440.97;;;-0.20;63.21
80837;BME280;70251;60.008;30.404;2023-11-21T02:35:21;101438.38;;;-0.21;63.22
80837;BME280;70251;60.008;30.404;2023-11-21T02:37:47;101440.19;;;-0.23;62.46
80837;BME280;70251;60.008;30.404;2023-11-21T02:40:13;101441.88;;;-0.21;62.86
80837;BME280;70251;60.008;30.404;2023-11-21T02:42:44;101437.50;;;-0.20;63.14
80837;BME280;70251;60.008;30.404;2023-11-21T02:45:11;101436.56;;;-0.19;62.65
80837;BME280;70251;60.008;30.404;2023-11-21T02:47:43;101441.94;;;-0.22;63.12
80837;BME280;70251;60.008;30.404;2023-11-21T02:50:09;101441.22;;;-0.27;62.88
80837;BME280;70251;60.008;30.404;2023-11-21T02:52:35;101442.81;;;-0.23;63.49
80837;BME280;70251;60.008;30.404;2023-11-21T02:55:02;101442.81;;;-0.22;63.35
80837;BME280;70251;60.008;30.404;2023-11-21T02:57:33;101440.88;;;-0.17;63.06
80837;BME280;70251;60.008;30.404;2023-11-21T02:59:59;101447.78;;;-0.14;62.73
80837;BME280;70251;60.008;30.404;2023-11-21T03:02:25;101454.94;;;-0.19;62.84
80837;BME280;70251;60.008;30.404;2023-11-21T03:05:02;101450.59;;;-0.20;62.75
80837;BME280;70251;60.008;30.404;2023-11-21T03:07:29;101454.94;;;-0.19;63.28
80837;BME280;70251;60.008;30.404;2023-11-21T03:09:54;101463.56;;;-0.16;62.80
80837;BME280;70251;60.008;30.404;2023-11-21T03:12:20;101464.38;;;-0.14;63.18
80837;BME280;70251;60.008;30.404;2023-11-21T03:14:46;101467.06;;;-0.15;62.79
80837;BME280;70251;60.008;30.404;2023-11-21T03:17:14;101475.00;;;-0.18;63.08
80837;BME280;70251;60.008;30.404;2023-11-21T03:19:41;101476.91;;;-0.23;63.29
80837;BME280;70251;60.008;30.404;2023-11-21T03:22:10;101481.41;;;-0.27;62.73
80837;BME280;70251;60.008;30.404;2023-11-21T03:24:45;101481.25;;;-0.22;63.22
80837;BME280;70251;60.008;30.404;2023-11-21T03:27:10;101479.34;;;-0.17;63.05
80837;BME280;70251;60.008;30.404;2023-11-21T03:29:39;101483.69;;;-0.16;63.22
80837;BME280;70251;60.008;30.404;2023-11-21T03:32:07;101495.78;;;-0.12;63.05
80837;BME280;70251;60.008;30.404;2023-11-21T03:34:33;101493.09;;;-0.11;62.89
80837;BME280;70251;60.008;30.404;2023-11-21T03:36:59;101490.47;;;-0.09;62.61
80837;BME280;70251;60.008;30.404;2023-11-21T03:39:25;101490.41;;;-0.08;62.74
80837;BME280;70251;60.008;30.404;2023-11-21T03:41:51;101486.88;;;-0.07;62.74
80837;BME280;70251;60.008;30.404;2023-11-21T03:44:17;101479.03;;;-0.07;62.56
80837;BME280;70251;60.008;30.404;2023-11-21T03:46:43;101480.78;;;-0.07;63.16
80837;BME280;70251;60.008;30.404;2023-11-21T03:49:09;101485.09;;;-0.06;63.18
80837;BME280;70251;60.008;30.404;2023-11-21T03:51:36;101481.63;;;-0.07;62.65
80837;BME280;70251;60.008;30.404;2023-11-21T03:54:02;101483.41;;;-0.07;62.85
80837;BME280;70251;60.008;30.404;2023-11-21T03:56:38;101493.78;;;-0.04;62.49
80837;BME280;70251;60.008;30.404;2023-11-21T03:59:04;101486.75;;;-0.04;63.10
80837;BME280;70251;60.008;30.404;2023-11-21T04:01:29;101498.13;;;-0.03;62.53
80837;BME280;70251;60.008;30.404;2023-11-21T04:03:55;101497.25;;;-0.04;62.43
80837;BME280;70251;60.008;30.404;2023-11-21T04:06:21;101498.13;;;-0.03;62.79
80837;BME280;70251;60.008;30.404;2023-11-21T04:08:49;101503.16;;;0.03;62.89
80837;BME280;70251;60.008;30.404;2023-11-21T04:11:19;101497.91;;;0.03;62.82
80837;BME280;70251;60.008;30.404;2023-11-21T04:13:45;101510.03;;;0.07;62.71
80837;BME280;70251;60.008;30.404;2023-11-21T04:16:12;101512.66;;;0.07;62.78
80837;BME280;70251;60.008;30.404;2023-11-21T04:18:41;101512.50;;;0.12;62.19
80837;BME280;70251;60.008;30.404;2023-11-21T04:21:07;101518.63;;;0.12;62.15
80837;BME280;70251;60.008;30.404;2023-11-21T04:23:33;101523.06;;;0.10;62.07
80837;BME280;70251;60.008;30.404;2023-11-21T04:26:01;101530.81;;;0.13;62.60
80837;BME280;70251;60.008;30.404;2023-11-21T04:28:27;101534.41;;;0.11;62.27
80837;BME280;70251;60.008;30.404;2023-11-21T04:30:53;101543.97;;;0.12;62.55
80837;BME280;70251;60.008;30.404;2023-11-21T04:33:22;101549.16;;;0.13;62.51
80837;BME280;70251;60.008;30.404;2023-11-21T04:35:53;101550.84;;;0.16;62.42
80837;BME280;70251;60.008;30.404;2023-11-21T04:38:19;101560.38;;;0.18;62.18
80837;BME280;70251;60.008;30.404;2023-11-21T04:40:47;101557.03;;;0.13;61.94
80837;BME280;70251;60.008;30.404;2023-11-21T04:43:13;101550.31;;;0.05;62.11
80837;BME280;70251;60.008;30.404;2023-11-21T04:45:38;101553.00;;;0.03;61.99
80837;BME280;70251;60.008;30.404;2023-11-21T04:48:07;101551.44;;;-0.03;62.16
80837;BME280;70251;60.008;30.404;2023-11-21T04:50:34;101555.94;;;-0.08;62.30
80837;BME280;70251;60.008;30.404;2023-11-21T04:52:59;101556.09;;;-0.12;62.62
80837;BME280;70251;60.008;30.404;2023-11-21T04:55:25;101545.78;;;-0.18;62.24
80837;BME280;70251;60.008;30.404;2023-11-21T04:57:54;101545.13;;;-0.25;61.70
80837;BME280;70251;60.008;30.404;2023-11-21T05:00:20;101560.91;;;-0.28;62.25
80837;BME280;70251;60.008;30.404;2023-11-21T05:02:46;101557.59;;;-0.33;62.01
80837;BME280;70251;60.008;30.404;2023-11-21T05:05:12;101557.69;;;-0.36;62.41
80837;BME280;70251;60.008;30.404;2023-11-21T05:07:40;101561.25;;;-0.38;62.69
80837;BME280;70251;60.008;30.404;2023-11-21T05:10:07;101566.53;;;-0.40;61.97
80837;BME280;70251;60.008;30.404;2023-11-21T05:12:36;101568.41;;;-0.43;62.16
80837;BME280;70251;60.008;30.404;2023-11-21T05:15:04;101563.22;;;-0.45;62.09
80837;BME280;70251;60.008;30.404;2023-11-21T05:17:33;101563.28;;;-0.48;62.44
80837;BME280;70251;60.008;30.404;2023-11-21T05:19:59;101571.09;;;-0.46;62.64
80837;BME280;70251;60.008;30.404;2023-11-21T05:22:30;101572.91;;;-0.48;62.07
80837;BME280;70251;60.008;30.404;2023-11-21T05:24:55;101572.91;;;-0.48;62.28
80837;BME280;70251;60.008;30.404;2023-11-21T05:27:21;101579.78;;;-0.44;62.18
80837;BME280;70251;60.008;30.404;2023-11-21T05:29:47;101587.59;;;-0.43;62.33
80837;BME280;70251;60.008;30.404;2023-11-21T05:32:12;101583.19;;;-0.42;61.73
80837;BME280;70251;60.008;30.404;2023-11-21T05:34:38;101591.84;;;-0.39;61.77
80837;BME280;70251;60.008;30.404;2023-11-21T05:37:04;101592.66;;;-0.37;61.65
80837;BME280;70251;60.008;30.404;2023-11-21T05:39:30;101591.84;;;-0.39;61.41
80837;BME280;70251;60.008;30.404;2023-11-21T05:41:57;101596.19;;;-0.38;62.07
80837;BME280;70251;60.008;30.404;2023-11-21T05:44:25;101597.94;;;-0.38;61.95
80837;BME280;70251;60.008;30.404;2023-11-21T05:46:53;101601.53;;;-0.42;61.67
80837;BME280;70251;60.008;30.404;2023-11-21T05:49:19;101601.72;;;-0.48;61.25
80837;BME280;70251;60.008;30.404;2023-11-21T05:51:47;101615.75;;;-0.49;61.49
80837;BME280;70251;60.008;30.404;2023-11-21T05:54:13;101620.06;;;-0.48;61.63
80837;BME280;70251;60.008;30.404;2023-11-21T05:56:41;101622.75;;;-0.50;61.60
80837;BME280;70251;60.008;30.404;2023-11-21T05:59:07;101629.59;;;-0.46;61.66
80837;BME280;70251;60.008;30.404;2023-11-21T06:01:32;101633.09;;;-0.45;61.59
80837;BME280;70251;60.008;30.404;2023-11-21T06:03:59;101640.09;;;-0.46;61.33
80837;BME280;70251;60.008;30.404;2023-11-21T06:06:31;101641.03;;;-0.48;61.11
80837;BME280;70251;60.008;30.404;2023-11-21T06:08:57;101652.44;;;-0.51;61.10
80837;BME280;70251;60.008;30.404;2023-11-21T06:11:23;101657.78;;;-0.54;60.78
80837;BME280;70251;60.008;30.404;2023-11-21T06:13:52;101657.88;;;-0.57;60.80
80837;BME280;70251;60.008;30.404;2023-11-21T06:16:21;101653.56;;;-0.59;61.37
80837;BME280;70251;60.008;30.404;2023-11-21T06:18:46;101649.25;;;-0.60;60.95
80837;BME280;70251;60.008;30.404;2023-11-21T06:21:12;101653.72;;;-0.65;60.76
80837;BME280;70251;60.008;30.404;2023-11-21T06:23:41;101665.25;;;-0.71;60.61
80837;BME280;70251;60.008;30.404;2023-11-21T06:26:07;101656.59;;;-0.74;61.20
80837;BME280;70251;60.008;30.404;2023-11-21T06:28:35;101655.81;;;-0.78;61.04
80837;BME280;70251;60.008;30.404;2023-11-21T06:31:02;101669.78;;;-0.77;61.34
80837;BME280;70251;60.008;30.404;2023-11-21T06:33:31;101665.31;;;-0.74;60.72
80837;BME280;70251;60.008;30.404;2023-11-21T06:35:57;101680.03;;;-0.68;60.76
80837;BME280;70251;60.008;30.404;2023-11-21T06:38:28;101678.25;;;-0.68;61.15
80837;BME280;70251;60.008;30.404;2023-11-21T06:40:56;101683.47;;;-0.66;61.42
80837;BME280;70251;60.008;30.404;2023-11-21T06:43:23;101691.22;;;-0.63;60.89
80837;BME280;70251;60.008;30.404;2023-11-21T06:45:49;101685.00;;;-0.59;60.45
80837;BME280;70251;60.008;30.404;2023-11-21T06:48:15;101693.69;;;-0.57;61.09
80837;BME280;70251;60.008;30.404;2023-11-21T06:50:41;101696.41;;;-0.60;60.87
80837;BME280;70251;60.008;30.404;2023-11-21T06:53:07;101699.91;;;-0.61;60.71
80837;BME280;70251;60.008;30.404;2023-11-21T06:55:34;101700.75;;;-0.61;60.43
80837;BME280;70251;60.008;30.404;2023-11-21T06:58:00;101707.69;;;-0.58;60.21
80837;BME280;70251;60.008;30.404;2023-11-21T07:00:26;101703.28;;;-0.56;60.77
80837;BME280;70251;60.008;30.404;2023-11-21T07:02:54;101713.63;;;-0.52;60.45
80837;BME280;70251;60.008;30.404;2023-11-21T07:05:23;101713.59;;;-0.50;59.94
80837;BME280;70251;60.008;30.404;2023-11-21T07:07:49;101697.13;;;-0.55;60.15
80837;BME280;70251;60.008;30.404;2023-11-21T07:10:15;101697.13;;;-0.55;60.03
80837;BME280;70251;60.008;30.404;2023-11-21T07:12:41;101703.28;;;-0.56;59.91
80837;BME280;70251;60.008;30.404;2023-11-21T07:15:07;101698.91;;;-0.57;59.61
80837;BME280;70251;60.008;30.404;2023-11-21T07:17:35;101703.34;;;-0.59;60.44
80837;BME280;70251;60.008;30.404;2023-11-21T07:20:01;101692.03;;;-0.61;60.00
80837;BME280;70251;60.008;30.404;2023-11-21T07:22:32;101698.09;;;-0.59;59.21
80837;BME280;70251;60.008;30.404;2023-11-21T07:24:57;101700.66;;;-0.56;59.96
80837;BME280;70251;60.008;30.404;2023-11-21T07:27:29;101711.00;;;-0.52;58.85
80837;BME280;70251;60.008;30.404;2023-11-21T07:29:55;101710.06;;;-0.49;59.48
80837;BME280;70251;60.008;30.404;2023-11-21T07:32:20;101713.41;;;-0.44;59.83
80837;BME280;70251;60.008;30.404;2023-11-21T07:34:46;101719.41;;;-0.39;59.44
80837;BME280;70251;60.008;30.404;2023-11-21T07:37:12;101720.19;;;-0.36;59.79
80837;BME280;70251;60.008;30.404;2023-11-21T07:39:37;101714.00;;;-0.33;59.27
80837;BME280;70251;60.008;30.404;2023-11-21T07:42:07;101718.34;;;-0.32;58.66
80837;BME280;70251;60.008;30.404;2023-11-21T07:44:32;101716.53;;;-0.30;58.70
80837;BME280;70251;60.008;30.404;2023-11-21T07:46:58;101718.31;;;-0.31;59.03
80837;BME280;70251;60.008;30.404;2023-11-21T07:49:24;101730.41;;;-0.27;58.75
80837;BME280;70251;60.008;30.404;2023-11-21T07:51:50;101733.84;;;-0.25;58.79
80837;BME280;70251;60.008;30.404;2023-11-21T07:54:16;101739.06;;;-0.23;58.46
80837;BME280;70251;60.008;30.404;2023-11-21T07:56:42;101736.34;;;-0.20;58.63
80837;BME280;70251;60.008;30.404;2023-11-21T07:59:08;101731.88;;;-0.17;58.93
80837;BME280;70251;60.008;30.404;2023-11-21T08:01:33;101730.00;;;-0.12;58.65
80837;BME280;70251;60.008;30.404;2023-11-21T08:03:59;101734.38;;;-0.12;58.63
80837;BME280;70251;60.008;30.404;2023-11-21T08:06:37;101737.81;;;-0.10;57.77
80837;BME280;70251;60.008;30.404;2023-11-21T08:09:03;101731.81;;;-0.14;58.53
80837;BME280;70251;60.008;30.404;2023-11-21T08:11:28;101727.50;;;-0.16;58.55
80837;BME280;70251;60.008;30.404;2023-11-21T08:13:57;101734.47;;;-0.15;58.80
80837;BME280;70251;60.008;30.404;2023-11-21T08:16:23;101731.88;;;-0.15;58.28
80837;BME280;70251;60.008;30.404;2023-11-21T08:18:49;101726.69;;;-0.18;58.83
80837;BME280;70251;60.008;30.404;2023-11-21T08:21:15;101723.19;;;-0.17;58.61
80837;BME280;70251;60.008;30.404;2023-11-21T08:23:40;101735.31;;;-0.15;58.92
80837;BME280;70251;60.008;30.404;2023-11-21T08:26:06;101729.00;;;-0.08;59.00
80837;BME280;70251;60.008;30.404;2023-11-21T08:28:31;101729.69;;;-0.01;58.83
80837;BME280;70251;60.008;30.404;2023-11-21T08:30:57;101728.66;;;0.05;59.03
80837;BME280;70251;60.008;30.404;2023-11-21T08:33:23;101725.19;;;0.04;58.31
80837;BME280;70251;60.008;30.404;2023-11-21T08:35:49;101721.91;;;-0.04;58.57
80837;BME280;70251;60.008;30.404;2023-11-21T08:38:14;101728.19;;;-0.10;58.73
80837;BME280;70251;60.008;30.404;2023-11-21T08:40:40;101728.25;;;-0.13;59.06
80837;BME280;70251;60.008;30.404;2023-11-21T08:43:05;101726.56;;;-0.14;58.87
80837;BME280;70251;60.008;30.404;2023-11-21T08:45:32;101729.09;;;-0.11;59.02
80837;BME280;70251;60.008;30.404;2023-11-21T08:48:01;101736.81;;;-0.06;58.83
80837;BME280;70251;60.008;30.404;2023-11-21T08:50:27;101735.03;;;-0.04;58.69
80837;BME280;70251;60.008;30.404;2023-11-21T08:52:53;101732.41;;;-0.04;59.18
80837;BME280;70251;60.008;30.404;2023-11-21T08:55:22;101733.25;;;-0.04;58.92
80837;BME280;70251;60.008;30.404;2023-11-21T08:57:47;101728.03;;;-0.04;59.23
80837;BME280;70251;60.008;30.404;2023-11-21T09:00:13;101728.88;;;-0.03;58.95
80837;BME280;70251;60.008;30.404;2023-11-21T09:02:54;101736.69;;;0.00;59.06
80837;BME280;70251;60.008;30.404;2023-11-21T09:05:19;101728.81;;;0.00;59.17
80837;BME280;70251;60.008;30.404;2023-11-21T09:07:46;101736.44;;;0.08;59.11
80837;BME280;70251;60.008;30.404;2023-11-21T09:10:14;101738.94;;;0.12;59.32
80837;BME280;70251;60.008;30.404;2023-11-21T09:12:40;101735.25;;;0.19;59.25
80837;BME280;70251;60.008;30.404;2023-11-21T09:15:07;101735.97;;;0.24;59.51
80837;BME280;70251;60.008;30.404;2023-11-21T09:17:33;101728.97;;;0.25;59.51
80837;BME280;70251;60.008;30.404;2023-11-21T09:20:00;101732.66;;;0.18;58.94
80837;BME280;70251;60.008;30.404;2023-11-21T09:22:26;101725.03;;;0.09;59.55
80837;BME280;70251;60.008;30.404;2023-11-21T09:24:52;101732.19;;;0.04;59.58
80837;BME280;70251;60.008;30.404;2023-11-21T09:27:19;101724.53;;;-0.04;59.43
80837;BME280;70251;60.008;30.404;2023-11-21T09:29:45;101724.94;;;-0.19;59.78
80837;BME280;70251;60.008;30.404;2023-11-21T09:32:13;101723.59;;;-0.32;60.43
80837;BME280;70251;60.008;30.404;2023-11-21T09:34:39;101732.00;;;-0.21;60.03
80837;BME280;70251;60.008;30.404;2023-11-21T09:37:05;101729.44;;;-0.23;60.26
80837;BME280;70251;60.008;30.404;2023-11-21T09:39:35;101728.41;;;-0.17;60.21
80837;BME280;70251;60.008;30.404;2023-11-21T09:42:10;101735.75;;;0.01;60.59
80837;BME280;70251;60.008;30.404;2023-11-21T09:44:54;101737.22;;;-0.20;60.11
80837;BME280;70251;60.008;30.404;2023-11-21T09:47:24;101735.94;;;-0.37;60.67
80837;BME280;70251;60.008;30.404;2023-11-21T09:49:49;101737.91;;;-0.45;60.76
80837;BME280;70251;60.008;30.404;2023-11-21T09:52:22;101744.03;;;-0.46;60.62
80837;BME280;70251;60.008;30.404;2023-11-21T09:54:52;101741.31;;;-0.42;60.62
80837;BME280;70251;60.008;30.404;2023-11-21T09:57:23;101745.56;;;-0.36;60.36
80837;BME280;70251;60.008;30.404;2023-11-21T09:59:54;101740.22;;;-0.33;60.66
80837;BME280;70251;60.008;30.404;2023-11-21T10:02:26;101741.72;;;-0.25;60.96
80837;BME280;70251;60.008;30.404;2023-11-21T10:04:55;101743.19;;;-0.15;60.61
80837;BME280;70251;60.008;30.404;2023-11-21T10:07:22;101748.31;;;-0.10;61.00
80837;BME280;70251;60.008;30.404;2023-11-21T10:09:51;101749.94;;;-0.06;60.98
80837;BME280;70251;60.008;30.404;2023-11-21T10:12:16;101749.00;;;-0.04;61.03
80837;BME280;70251;60.008;30.404;2023-11-21T10:14:44;101746.19;;;0.03;60.87
80837;BME280;70251;60.008;30.404;2023-11-21T10:17:14;101750.44;;;0.08;61.16
80837;BME280;70251;60.008;30.404;2023-11-21T10:19:42;101752.94;;;0.13;61.02
80837;BME280;70251;60.008;30.404;2023-11-21T10:22:08;101748.50;;;0.15;61.22
80837;BME280;70251;60.008;30.404;2023-11-21T10:24:35;101747.69;;;0.13;61.32
80837;BME280;70251;60.008;30.404;2023-11-21T10:27:04;101749.63;;;0.06;61.12
80837;BME280;70251;60.008;30.404;2023-11-21T10:29:29;101746.25;;;0.01;60.74
80837;BME280;70251;60.008;30.404;2023-11-21T10:31:56;101739.38;;;-0.03;61.60
80837;BME280;70251;60.008;30.404;2023-11-21T10:34:24;101756.16;;;-0.09;61.52
80837;BME280;70251;60.008;30.404;2023-11-21T10:36:50;101765.78;;;-0.09;62.40
80837;BME280;70251;60.008;30.404;2023-11-21T10:39:20;101756.28;;;-0.13;62.18
80837;BME280;70251;60.008;30.404;2023-11-21T10:41:47;101753.56;;;-0.10;62.16
80837;BME280;70251;60.008;30.404;2023-11-21T10:44:14;101758.06;;;-0.15;61.99
80837;BME280;70251;60.008;30.404;2023-11-21T10:46:54;101766.72;;;-0.12;62.52
80837;BME280;70251;60.008;30.404;2023-11-21T10:49:25;101760.47;;;-0.08;62.07
80837;BME280;70251;60.008;30.404;2023-11-21T10:51:53;101766.47;;;-0.03;62.15
80837;BME280;70251;60.008;30.404;2023-11-21T10:54:24;101761.88;;;0.06;61.82
80837;BME280;70251;60.008;30.404;2023-11-21T10:57:00;101773.03;;;0.12;62.54
80837;BME280;70251;60.008;30.404;2023-11-21T10:59:31;101773.41;;;-0.02;62.05
80837;BME280;70251;60.008;30.404;2023-11-21T11:02:01;101776.16;;;-0.05;62.54
80837;BME280;70251;60.008;30.404;2023-11-21T11:04:28;101774.16;;;0.04;62.39
80837;BME280;70251;60.008;30.404;2023-11-21T11:06:57;101773.25;;;0.05;62.12
80837;BME280;70251;60.008;30.404;2023-11-21T11:09:23;101774.03;;;0.08;62.00
80837;BME280;70251;60.008;30.404;2023-11-21T11:11:51;101775.66;;;0.12;61.87
80837;BME280;70251;60.008;30.404;2023-11-21T11:14:17;101775.91;;;0.03;61.58
80837;BME280;70251;60.008;30.404;2023-11-21T11:16:45;101774.22;;;0.02;61.90
80837;BME280;70251;60.008;30.404;2023-11-21T11:19:11;101761.81;;;0.07;61.85
80837;BME280;70251;60.008;30.404;2023-11-21T11:21:43;101767.06;;;0.07;62.29
80837;BME280;70251;60.008;30.404;2023-11-21T11:29:31;101765.19;;;0.12;61.75
80837;BME280;70251;60.008;30.404;2023-11-21T11:37:21;101763.56;;;0.07;61.84
80837;BME280;70251;60.008;30.404;2023-11-21T11:39:49;101767.41;;;-0.05;62.21
80837;BME280;70251;60.008;30.404;2023-11-21T11:42:17;101770.78;;;-0.02;61.97
80837;BME280;70251;60.008;30.404;2023-11-21T11:47:13;101776.84;;;0.02;62.16
80837;BME280;70251;60.008;30.404;2023-11-21T11:49:58;101777.78;;;-0.01;62.53
80837;BME280;70251;60.008;30.404;2023-11-21T11:52:39;101777.66;;;0.03;62.52
80837;BME280;70251;60.008;30.404;2023-11-21T11:55:07;101772.34;;;0.06;62.25
80837;BME280;70251;60.008;30.404;2023-11-21T11:57:35;101778.38;;;0.09;62.55
80837;BME280;70251;60.008;30.404;2023-11-21T12:00:22;101776.50;;;0.14;63.23
80837;BME280;70251;60.008;30.404;2023-11-21T12:03:01;101777.19;;;0.21;62.37
80837;BME280;70251;60.008;30.404;2023-11-21T12:05:32;101780.66;;;0.21;62.86
80837;BME280;70251;60.008;30.404;2023-11-21T12:08:03;101776.13;;;0.26;62.94
80837;BME280;70251;60.008;30.404;2023-11-21T12:10:33;101769.88;;;0.30;62.92
80837;BME280;70251;60.008;30.404;2023-11-21T12:13:11;101780.38;;;0.30;62.44
80837;BME280;70251;60.008;30.404;2023-11-21T12:15:39;101777.63;;;0.35;62.61
80837;BME280;70251;60.008;30.404;2023-11-21T12:18:07;101780.88;;;0.43;62.54
80837;BME280;70251;60.008;30.404;2023-11-21T12:20:33;101786.81;;;0.49;62.60
80837;BME280;70251;60.008;30.404;2023-11-21T12:23:05;101781.50;;;0.52;62.19
80837;BME280;70251;60.008;30.404;2023-11-21T12:25:32;101789.28;;;0.55;62.64
80837;BME280;70251;60.008;30.404;2023-11-21T12:27:59;101789.28;;;0.55;62.61
80837;BME280;70251;60.008;30.404;2023-11-21T12:30:27;101784.94;;;0.54;62.27
80837;BME280;70251;60.008;30.404;2023-11-21T12:32:56;101789.44;;;0.51;62.53
80837;BME280;70251;60.008;30.404;2023-11-21T12:35:30;101797.25;;;0.52;62.41
80837;BME280;70251;60.008;30.404;2023-11-21T12:38:01;101794.69;;;0.49;62.31
80837;BME280;70251;60.008;30.404;2023-11-21T12:40:28;101800.88;;;0.48;62.32
80837;BME280;70251;60.008;30.404;2023-11-21T12:42:59;101802.81;;;0.42;61.94
80837;BME280;70251;60.008;30.404;2023-11-21T12:45:28;101804.66;;;0.38;62.16
80837;BME280;70251;60.008;30.404;2023-11-21T12:47:58;101804.66;;;0.38;62.40
80837;BME280;70251;60.008;30.404;2023-11-21T12:50:27;101803.81;;;0.36;62.20
80837;BME280;70251;60.008;30.404;2023-11-21T12:52:59;101800.38;;;0.34;61.96
80837;BME280;70251;60.008;30.404;2023-11-21T12:55:25;101809.13;;;0.35;62.47
80837;BME280;70251;60.008;30.404;2023-11-21T12:57:55;101810.06;;;0.32;62.41